createdAt,value
2022-09-15T00:02:22.252Z,87.00
2022-09-15T00:04:49.175Z,87.07
2022-09-15T00:07:16.106Z,88.55
2022-09-15T00:09:42.993Z,87.00
2022-09-15T00:12:10.083Z,87.15
2022-09-15T00:14:36.956Z,87.30
2022-09-15T00:17:05.637Z,87.05
2022-09-15T00:19:32.601Z,87.13
2022-09-15T00:21:59.407Z,87.90
2022-09-15T00:24:26.366Z,87.60
2022-09-15T00:26:53.364Z,86.95
2022-09-15T00:29:20.626Z,87.15
2022-09-15T00:31:47.426Z,87.38
2022-09-15T00:34:16.276Z,87.85
2022-09-15T00:36:43.076Z,88.20
2022-09-15T00:39:09.948Z,87.68
2022-09-15T00:41:39.102Z,87.57
2022-09-15T00:44:27.230Z,87.25
2022-09-15T00:47:15.645Z,87.90
2022-09-15T00:49:47.407Z,92.30
2022-09-15T00:54:46.698Z,87.05
2022-09-15T00:57:26.017Z,88.55
2022-09-15T00:59:55.909Z,88.25
2022-09-15T01:02:26.993Z,87.80
2022-09-15T01:04:58.552Z,88.05
2022-09-15T01:07:35.156Z,88.20
2022-09-15T01:10:06.366Z,87.70
2022-09-15T01:12:33.533Z,88.00
2022-09-15T01:15:01.116Z,88.13
2022-09-15T01:17:36.780Z,87.55
2022-09-15T01:20:34.091Z,90.53
2022-09-15T01:23:20.256Z,89.55
2022-09-15T01:26:13.759Z,89.05
2022-09-15T01:29:01.934Z,90.78
2022-09-15T01:31:37.108Z,91.47
2022-09-15T01:34:11.648Z,97.32
2022-09-15T01:36:45.149Z,96.93
2022-09-15T01:39:16.423Z,99.85
2022-09-15T01:41:47.319Z,94.40
2022-09-15T01:44:18.554Z,94.32
2022-09-15T01:46:50.324Z,93.43
2022-09-15T01:49:21.093Z,94.70
2022-09-15T01:51:50.854Z,100.03
2022-09-15T01:54:21.688Z,102.70
2022-09-15T01:56:48.526Z,103.50
2022-09-15T01:59:15.709Z,99.97
2022-09-15T02:01:51.674Z,102.47
2022-09-15T02:04:23.081Z,103.35
2022-09-15T02:06:55.657Z,97.95
2022-09-15T02:09:26.589Z,99.03
2022-09-15T02:12:02.552Z,96.05
2022-09-15T02:14:48.152Z,93.70
2022-09-15T02:17:19.624Z,96.57
2022-09-15T02:22:23.554Z,100.30
2022-09-15T02:24:57.088Z,101.88
2022-09-15T02:27:27.470Z,99.60
2022-09-15T02:29:59.072Z,102.13
2022-09-15T02:32:30.301Z,102.38
2022-09-15T02:35:03.215Z,102.65
2022-09-15T02:37:30.111Z,102.70
2022-09-15T02:39:58.895Z,101.93
2022-09-15T02:42:27.459Z,106.25
2022-09-15T02:44:54.369Z,108.05
2022-09-15T02:47:21.565Z,108.18
2022-09-15T02:49:49.807Z,108.25
2022-09-15T02:52:16.967Z,100.63
2022-09-15T02:54:43.742Z,107.35
2022-09-15T02:57:10.730Z,103.10
2022-09-15T02:59:56.127Z,106.13
2022-09-15T03:02:23.641Z,107.70
2022-09-15T03:04:51.832Z,103.50
2022-09-15T03:07:18.975Z,108.38
2022-09-15T03:09:46.587Z,104.80
2022-09-15T03:12:13.811Z,107.00
2022-09-15T03:14:40.579Z,110.22
2022-09-15T03:17:07.425Z,102.95
2022-09-15T03:19:34.232Z,107.35
2022-09-15T03:22:02.434Z,109.95
2022-09-15T03:24:29.432Z,110.03
2022-09-15T03:26:56.277Z,108.90
2022-09-15T03:29:23.426Z,109.25
2022-09-15T03:31:50.286Z,105.85
2022-09-15T03:34:17.242Z,108.00
2022-09-15T03:36:44.051Z,103.47
2022-09-15T03:39:13.104Z,103.32
2022-09-15T03:41:39.948Z,101.32
2022-09-15T03:44:07.127Z,107.40
2022-09-15T03:46:34.070Z,112.60
2022-09-15T03:49:00.894Z,113.55
2022-09-15T03:51:27.825Z,109.07
2022-09-15T03:53:55.626Z,111.90
2022-09-15T03:56:26.598Z,116.57
2022-09-15T03:58:54.410Z,111.43
2022-09-15T04:01:21.708Z,115.68
2022-09-15T04:03:51.318Z,115.55
2022-09-15T04:06:19.275Z,117.25
2022-09-15T04:08:46.201Z,111.20
2022-09-15T04:11:13.895Z,108.88
2022-09-15T04:13:42.351Z,107.75
2022-09-15T04:16:11.657Z,112.68
2022-09-15T04:18:38.779Z,114.00
2022-09-15T04:21:10.269Z,113.25
2022-09-15T04:26:05.906Z,113.82
2022-09-15T04:28:34.579Z,108.70
2022-09-15T04:31:08.699Z,112.68
2022-09-15T04:33:36.194Z,108.43
2022-09-15T04:36:06.609Z,104.53
2022-09-15T04:38:33.794Z,107.50
2022-09-15T04:41:01.048Z,111.30
2022-09-15T04:43:28.807Z,114.78
2022-09-15T04:45:55.881Z,110.28
2022-09-15T04:48:24.471Z,111.95
2022-09-15T04:50:51.926Z,115.53
2022-09-15T04:53:19.185Z,113.18
2022-09-15T04:55:46.067Z,108.18
2022-09-15T04:58:13.225Z,107.43
2022-09-15T05:00:43.592Z,109.75
2022-09-15T05:03:11.830Z,108.10
2022-09-15T05:05:40.710Z,112.82
2022-09-15T05:08:08.277Z,110.40
2022-09-15T05:10:35.423Z,110.95
2022-09-15T05:13:02.281Z,106.97
2022-09-15T05:15:29.121Z,108.13
2022-09-15T05:17:55.975Z,113.88
2022-09-15T05:20:22.864Z,115.40
2022-09-15T05:22:51.093Z,114.05
2022-09-15T05:25:18.000Z,112.70
2022-09-15T05:27:45.022Z,110.03
2022-09-15T05:32:59.395Z,104.95
2022-09-15T05:35:26.404Z,93.18
2022-09-15T05:37:54.628Z,90.68
2022-09-15T05:40:22.721Z,91.03
2022-09-15T05:42:49.608Z,93.15
2022-09-15T05:45:16.701Z,90.53
2022-09-15T05:47:43.611Z,90.15
2022-09-15T05:50:11.210Z,90.20
2022-09-15T05:52:38.216Z,91.43
2022-09-15T05:55:07.038Z,90.38
2022-09-15T05:57:33.853Z,88.65
2022-09-15T06:00:00.886Z,88.78
2022-09-15T06:02:27.745Z,88.38
2022-09-15T06:04:54.611Z,87.85
2022-09-15T06:07:21.474Z,88.50
2022-09-15T06:09:48.300Z,87.78
2022-09-15T06:12:18.016Z,88.57
2022-09-15T06:14:45.951Z,88.88
2022-09-15T06:17:12.820Z,88.90
2022-09-15T06:19:39.598Z,88.97
2022-09-15T06:22:06.528Z,89.20
2022-09-15T06:24:33.428Z,89.22
2022-09-15T06:27:00.908Z,88.85
2022-09-15T06:29:36.773Z,89.25
2022-09-15T06:32:05.193Z,89.55
2022-09-15T06:34:33.034Z,89.70
2022-09-15T06:37:00.183Z,90.00
2022-09-15T06:39:27.188Z,89.63
2022-09-15T06:42:02.389Z,90.18
2022-09-15T06:44:32.039Z,89.90
2022-09-15T06:46:58.992Z,89.85
2022-09-15T06:49:26.063Z,90.40
2022-09-15T06:51:52.986Z,91.55
2022-09-15T06:54:19.890Z,95.40
2022-09-15T06:56:47.338Z,95.65
2022-09-15T06:59:15.050Z,97.03
2022-09-15T07:01:43.357Z,96.60
2022-09-15T07:04:10.854Z,97.72
2022-09-15T07:06:39.731Z,98.28
2022-09-15T07:09:07.191Z,100.93
2022-09-15T07:11:34.366Z,103.20
2022-09-15T07:14:01.650Z,103.03
2022-09-15T07:16:28.700Z,104.65
2022-09-15T07:18:58.216Z,103.63
2022-09-15T07:21:25.159Z,102.25
2022-09-15T07:23:52.373Z,104.78
2022-09-15T07:26:21.593Z,112.88
2022-09-15T07:28:50.323Z,86.97
2022-09-15T07:31:19.117Z,86.32
2022-09-15T07:33:46.463Z,86.97
2022-09-15T07:36:15.434Z,87.03
2022-09-15T07:38:44.241Z,86.82
2022-09-15T07:41:13.979Z,93.28
2022-09-15T07:43:45.271Z,98.43
2022-09-15T07:46:12.292Z,101.05
2022-09-15T07:48:39.264Z,98.93
2022-09-15T07:51:06.579Z,97.80
2022-09-15T07:53:34.814Z,97.38
2022-09-15T07:56:02.003Z,94.47
2022-09-15T07:58:29.683Z,93.95
2022-09-15T08:01:01.878Z,95.57
2022-09-15T08:03:29.250Z,97.50
2022-09-15T08:05:58.287Z,96.70
2022-09-15T08:08:25.365Z,97.28
2022-09-15T08:10:53.783Z,96.90
2022-09-15T08:13:20.804Z,93.25
2022-09-15T08:15:47.908Z,92.85
2022-09-15T08:18:15.708Z,93.03
2022-09-15T08:20:43.630Z,92.65
2022-09-15T08:23:11.332Z,92.13
2022-09-15T08:25:39.207Z,91.28
2022-09-15T08:28:07.842Z,92.68
2022-09-15T08:30:35.409Z,90.18
2022-09-15T08:33:02.321Z,90.70
2022-09-15T08:35:30.092Z,90.18
2022-09-15T08:37:56.965Z,90.65
2022-09-15T08:40:34.768Z,90.93
2022-09-15T08:43:13.103Z,90.53
2022-09-15T08:45:47.790Z,90.88
2022-09-15T08:48:17.247Z,91.18
2022-09-15T08:50:46.656Z,90.78
2022-09-15T08:53:17.874Z,90.38
2022-09-15T08:55:49.855Z,90.47
2022-09-15T08:58:20.464Z,90.93
2022-09-15T09:00:51.768Z,89.77
2022-09-15T09:03:35.577Z,88.68
2022-09-15T09:06:12.417Z,93.22
2022-09-15T09:09:03.312Z,87.40
2022-09-15T09:11:42.964Z,86.30
2022-09-15T09:14:19.144Z,86.57
2022-09-15T09:17:02.919Z,87.32
2022-09-15T09:19:47.668Z,86.80
2022-09-15T09:22:20.000Z,87.25
2022-09-15T09:24:50.065Z,86.53
2022-09-15T09:27:21.432Z,86.65
2022-09-15T09:29:54.466Z,86.45
2022-09-15T09:32:25.303Z,89.47
2022-09-15T09:35:00.504Z,87.88
2022-09-15T09:37:27.992Z,86.75
2022-09-15T09:39:54.864Z,87.55
2022-09-15T09:42:27.657Z,88.93
2022-09-15T09:44:56.610Z,97.43
2022-09-15T09:47:27.603Z,110.10
2022-09-15T09:49:54.543Z,115.85
2022-09-15T09:52:34.143Z,118.18
2022-09-15T09:55:02.388Z,121.15
2022-09-15T09:57:31.144Z,119.78
2022-09-15T09:59:59.424Z,116.32
2022-09-15T10:02:28.116Z,114.85
2022-09-15T10:05:12.325Z,110.65
2022-09-15T10:07:43.715Z,108.45
2022-09-15T10:10:20.479Z,113.68
2022-09-15T10:12:48.429Z,110.40
2022-09-15T10:15:24.387Z,107.07
2022-09-15T10:17:52.814Z,107.22
2022-09-15T10:20:28.500Z,122.68
2022-09-15T10:23:04.096Z,116.95
2022-09-15T10:25:55.053Z,119.57
2022-09-15T10:28:23.769Z,120.15
2022-09-15T10:31:07.263Z,120.70
2022-09-15T10:33:36.383Z,108.88
2022-09-15T10:36:12.213Z,121.20
2022-09-15T10:38:42.975Z,137.75
2022-09-15T10:41:22.468Z,171.63
2022-09-15T10:44:10.728Z,116.68
2022-09-15T10:46:49.357Z,114.32
2022-09-15T10:49:33.538Z,124.18
2022-09-15T10:52:13.114Z,120.22
2022-09-15T10:54:54.597Z,127.97
2022-09-15T11:00:01.757Z,124.53
2022-09-15T11:03:08.047Z,119.95
2022-09-15T11:05:48.943Z,124.57
2022-09-15T11:08:31.956Z,123.28
2022-09-15T11:11:07.804Z,109.90
2022-09-15T11:13:50.320Z,108.80
2022-09-15T11:16:31.375Z,106.25
2022-09-15T11:19:14.939Z,107.32
2022-09-15T11:21:46.215Z,106.78
2022-09-15T11:27:00.892Z,114.78
2022-09-15T11:29:33.918Z,115.82
2022-09-15T11:32:05.659Z,114.45
2022-09-15T11:34:39.184Z,102.28
2022-09-15T11:37:12.173Z,103.05
2022-09-15T11:39:46.452Z,104.43
2022-09-15T11:42:20.001Z,103.20
2022-09-15T11:44:48.241Z,103.30
2022-09-15T11:47:24.645Z,105.38
2022-09-15T11:49:57.892Z,108.72
2022-09-15T11:52:49.629Z,97.63
2022-09-15T11:55:25.335Z,95.63
2022-09-15T11:57:59.890Z,94.57
2022-09-15T12:00:26.961Z,94.53
2022-09-15T12:03:06.029Z,94.05
2022-09-15T12:05:39.824Z,94.43
2022-09-15T12:08:15.358Z,98.90
2022-09-15T12:10:45.648Z,98.38
2022-09-15T12:13:16.875Z,99.30
2022-09-15T12:15:44.369Z,101.28
2022-09-15T12:18:37.770Z,106.05
2022-09-15T12:21:15.790Z,108.47
2022-09-15T12:23:51.042Z,110.57
2022-09-15T12:26:20.230Z,107.10
2022-09-15T12:28:58.396Z,107.50
2022-09-15T12:31:29.271Z,108.30
2022-09-15T12:33:58.650Z,106.57
2022-09-15T12:36:44.176Z,105.93
2022-09-15T12:39:27.980Z,106.22
2022-09-15T12:41:58.265Z,104.47
2022-09-15T12:44:32.764Z,103.35
2022-09-15T12:47:01.709Z,102.00
2022-09-15T12:49:31.714Z,102.03
2022-09-15T12:52:03.490Z,101.45
2022-09-15T12:54:33.152Z,103.35
2022-09-15T12:57:01.375Z,103.07
2022-09-15T12:59:29.161Z,104.13
2022-09-15T13:01:57.583Z,104.35
2022-09-15T13:04:52.858Z,105.15
2022-09-15T13:07:54.603Z,105.20
2022-09-15T13:10:31.227Z,105.95
2022-09-15T13:13:12.303Z,96.15
2022-09-15T13:15:46.849Z,96.35
2022-09-15T13:18:16.037Z,95.05
2022-09-15T13:20:53.734Z,95.63
2022-09-15T13:23:27.238Z,95.05
2022-09-15T13:25:57.914Z,95.80
2022-09-15T13:28:25.996Z,94.15
2022-09-15T13:31:34.417Z,94.63
2022-09-15T13:40:36.534Z,99.70
2022-09-15T13:43:28.882Z,97.53
2022-09-15T13:46:12.485Z,96.47
2022-09-15T13:48:50.180Z,96.18
2022-09-15T13:51:25.098Z,95.88
2022-09-15T13:53:56.608Z,95.88
2022-09-15T13:56:27.825Z,95.68
2022-09-15T13:59:05.391Z,95.00
2022-09-15T14:01:41.535Z,94.95
2022-09-15T14:04:13.397Z,94.38
2022-09-15T14:06:43.259Z,94.00
2022-09-15T14:09:15.634Z,94.55
2022-09-15T14:11:47.616Z,95.20
2022-09-15T14:14:35.178Z,95.38
2022-09-15T14:17:02.447Z,94.80
2022-09-15T14:19:33.806Z,95.75
2022-09-15T14:22:01.229Z,96.35
2022-09-15T14:24:30.144Z,94.70
2022-09-15T14:27:01.490Z,95.07
2022-09-15T14:29:28.383Z,94.75
2022-09-15T14:32:00.897Z,94.93
2022-09-15T14:34:31.812Z,94.45
2022-09-15T14:37:03.431Z,94.55
2022-09-15T14:39:31.325Z,94.55
2022-09-15T14:42:09.335Z,94.25
2022-09-15T14:47:27.870Z,94.55
2022-09-15T14:50:08.048Z,100.35
2022-09-15T14:52:39.456Z,94.75
2022-09-15T14:55:12.397Z,94.68
2022-09-15T14:57:45.984Z,94.63
2022-09-15T15:00:21.309Z,94.97
2022-09-15T15:03:02.454Z,94.45
2022-09-15T15:05:35.445Z,93.95
2022-09-15T15:08:06.905Z,94.45
2022-09-15T15:10:36.033Z,94.30
2022-09-15T15:13:09.125Z,93.93
2022-09-15T15:15:38.316Z,95.00
2022-09-15T15:18:07.413Z,94.70
2022-09-15T15:20:34.328Z,94.43
2022-09-15T15:23:13.827Z,94.45
2022-09-15T15:25:41.787Z,94.85
2022-09-15T15:28:30.051Z,95.70
2022-09-15T15:31:12.329Z,96.28
2022-09-15T15:33:46.537Z,94.65
2022-09-15T15:36:13.805Z,92.65
2022-09-15T15:38:47.008Z,95.57
2022-09-15T15:41:21.322Z,95.72
2022-09-15T15:44:03.157Z,96.13
2022-09-15T15:46:52.497Z,94.60
2022-09-15T15:49:21.318Z,93.72
2022-09-15T15:51:48.852Z,93.65
2022-09-15T15:54:15.790Z,94.45
2022-09-15T15:56:42.843Z,95.63
2022-09-15T15:59:12.946Z,91.53
2022-09-15T16:01:40.225Z,92.97
2022-09-15T16:04:08.103Z,93.20
2022-09-15T16:06:35.938Z,94.00
2022-09-15T16:09:04.906Z,94.28
2022-09-15T16:11:32.101Z,103.38
2022-09-15T16:13:59.221Z,107.63
2022-09-15T16:16:28.021Z,107.35
2022-09-15T16:18:54.919Z,110.95
2022-09-15T16:21:28.943Z,109.90
2022-09-15T16:23:55.838Z,106.57
2022-09-15T16:26:24.817Z,106.90
2022-09-15T16:28:52.470Z,110.15
2022-09-15T16:31:19.526Z,107.90
2022-09-15T16:33:47.820Z,105.80
2022-09-15T16:36:16.618Z,100.65
2022-09-15T16:38:44.181Z,106.13
2022-09-15T16:41:14.245Z,95.68
2022-09-15T16:43:41.373Z,96.65
2022-09-15T16:46:09.884Z,91.47
2022-09-15T16:48:36.970Z,91.60
2022-09-15T16:51:23.480Z,90.28
2022-09-15T16:53:54.530Z,94.00
2022-09-15T16:56:21.440Z,94.53
2022-09-15T16:58:48.342Z,100.82
2022-09-15T17:01:18.159Z,95.70
2022-09-15T17:03:45.461Z,98.53
2022-09-15T17:06:14.850Z,102.90
2022-09-15T17:08:42.111Z,130.98
2022-09-15T17:11:16.246Z,174.48
2022-09-15T17:13:44.697Z,149.25
2022-09-15T17:16:13.946Z,124.93
2022-09-15T17:18:40.823Z,126.03
2022-09-15T17:21:10.191Z,148.73
2022-09-15T17:23:40.383Z,175.15
2022-09-15T17:26:11.521Z,153.02
2022-09-15T17:28:38.493Z,116.63
2022-09-15T17:31:11.327Z,167.50
2022-09-15T17:33:38.334Z,115.78
2022-09-15T17:36:05.434Z,120.07
2022-09-15T17:38:32.847Z,134.35
2022-09-15T17:41:01.328Z,150.07
2022-09-15T17:43:29.909Z,149.27
2022-09-15T17:45:57.484Z,134.25
2022-09-15T17:48:25.103Z,127.18
2022-09-15T17:50:52.537Z,147.50
2022-09-15T17:53:21.444Z,150.77
2022-09-15T17:55:49.046Z,162.45
2022-09-15T17:58:18.130Z,146.32
2022-09-15T18:00:45.900Z,148.32
2022-09-15T18:03:21.128Z,177.65
2022-09-15T18:05:48.494Z,87.78
2022-09-15T18:08:16.497Z,86.45
2022-09-15T18:10:43.842Z,85.10
2022-09-15T18:13:14.591Z,84.65
2022-09-15T18:15:43.368Z,61.38
2022-09-15T18:18:13.649Z,84.35
2022-09-15T18:20:40.628Z,82.60
2022-09-15T18:23:12.852Z,82.25
2022-09-15T18:25:39.852Z,88.38
2022-09-15T18:28:06.784Z,87.20
2022-09-15T18:30:37.146Z,87.55
2022-09-15T18:33:05.514Z,86.35
2022-09-15T18:35:32.418Z,87.20
2022-09-15T18:38:00.109Z,87.18
2022-09-15T18:40:27.702Z,86.75
2022-09-15T18:42:56.612Z,87.10
2022-09-15T18:45:23.753Z,87.63
2022-09-15T18:47:52.321Z,85.93
2022-09-15T18:50:23.310Z,85.82
2022-09-15T18:52:50.794Z,85.65
2022-09-15T18:55:21.084Z,85.28
2022-09-15T18:57:48.434Z,85.68
2022-09-15T19:00:17.430Z,85.18
2022-09-15T19:02:44.488Z,85.65
2022-09-15T19:05:12.309Z,85.90
2022-09-15T19:07:40.561Z,85.80
2022-09-15T19:10:08.334Z,88.43
2022-09-15T19:12:35.308Z,86.63
2022-09-15T19:15:02.238Z,86.28
2022-09-15T19:17:29.089Z,86.20
2022-09-15T19:19:55.868Z,85.90
2022-09-15T19:22:22.725Z,85.68
2022-09-15T19:24:50.992Z,85.05
2022-09-15T19:27:17.871Z,85.38
2022-09-15T19:29:44.752Z,84.43
2022-09-15T19:32:14.352Z,83.90
2022-09-15T19:34:42.148Z,84.43
2022-09-15T19:37:13.074Z,85.43
2022-09-15T19:39:42.187Z,86.65
2022-09-15T19:42:11.207Z,83.40
2022-09-15T19:44:38.327Z,84.15
2022-09-15T19:47:05.169Z,85.40
2022-09-15T19:49:32.098Z,95.70
2022-09-15T19:51:58.900Z,98.63
2022-09-15T19:54:28.607Z,99.47
2022-09-15T19:56:56.380Z,87.28
2022-09-15T19:59:30.191Z,89.30
2022-09-15T20:01:58.310Z,95.05
2022-09-15T20:07:09.697Z,87.03
2022-09-15T20:09:36.482Z,86.95
2022-09-15T20:12:03.647Z,87.95
2022-09-15T20:14:31.806Z,88.80
2022-09-15T20:17:01.164Z,93.50
2022-09-15T20:19:28.532Z,102.13
2022-09-15T20:21:55.314Z,101.25
2022-09-15T20:24:23.584Z,107.95
2022-09-15T20:26:50.595Z,106.68
2022-09-15T20:29:18.503Z,108.50
2022-09-15T20:31:47.611Z,105.68
2022-09-15T20:34:14.965Z,105.13
2022-09-15T20:36:41.862Z,114.35
2022-09-15T20:39:13.035Z,120.85
2022-09-15T20:41:41.325Z,123.72
2022-09-15T20:44:09.504Z,107.57
2022-09-15T20:46:37.111Z,112.18
2022-09-15T20:49:05.779Z,108.45
2022-09-15T20:51:33.788Z,110.80
2022-09-15T20:54:03.546Z,114.00
2022-09-15T20:56:32.573Z,111.63
2022-09-15T20:59:00.130Z,111.90
2022-09-15T21:01:28.991Z,111.05
2022-09-15T21:03:56.077Z,107.88
2022-09-15T21:06:27.882Z,108.45
2022-09-15T21:08:56.631Z,105.40
2022-09-15T21:11:29.138Z,111.30
2022-09-15T21:13:57.240Z,106.68
2022-09-15T21:16:26.450Z,106.82
2022-09-15T21:18:53.834Z,109.72
2022-09-15T21:21:22.684Z,112.95
2022-09-15T21:23:53.411Z,110.65
2022-09-15T21:26:22.783Z,116.53
2022-09-15T21:28:49.933Z,114.25
2022-09-15T21:31:18.993Z,109.15
2022-09-15T21:33:47.675Z,116.72
2022-09-15T21:36:23.327Z,132.60
2022-09-15T21:38:53.424Z,130.02
2022-09-15T21:41:22.226Z,131.93
2022-09-15T21:43:54.742Z,135.10
2022-09-15T21:46:23.857Z,133.68
2022-09-15T21:48:50.883Z,135.95
2022-09-15T21:51:24.267Z,111.30
2022-09-15T21:53:53.682Z,111.57
2022-09-15T21:56:21.530Z,131.38
2022-09-15T21:58:48.637Z,122.47
2022-09-15T22:01:18.936Z,121.47
2022-09-15T22:03:49.456Z,122.05
2022-09-15T22:06:16.861Z,119.93
2022-09-15T22:09:40.073Z,123.00
2022-09-15T22:12:20.504Z,106.78
2022-09-15T22:14:47.382Z,105.55
2022-09-15T22:17:14.175Z,105.57
2022-09-15T22:19:40.999Z,103.63
2022-09-15T22:22:07.994Z,102.78
2022-09-15T22:24:34.916Z,101.30
2022-09-15T22:27:01.676Z,101.00
2022-09-15T22:29:29.870Z,99.32
2022-09-15T22:31:56.683Z,100.28
2022-09-15T22:34:23.547Z,100.25
2022-09-15T22:36:50.302Z,100.18
2022-09-15T22:39:17.497Z,106.82
2022-09-15T22:41:44.263Z,106.38
2022-09-15T22:44:18.946Z,106.72
2022-09-15T22:46:49.698Z,98.65
2022-09-15T22:49:16.569Z,101.55
2022-09-15T22:51:43.423Z,99.50
2022-09-15T22:54:10.262Z,99.25
2022-09-15T22:56:37.179Z,100.18
2022-09-15T22:59:03.996Z,100.95
2022-09-15T23:01:31.152Z,98.50
2022-09-15T23:04:02.308Z,105.90
2022-09-15T23:06:31.260Z,115.78
2022-09-15T23:09:00.347Z,121.35
2022-09-15T23:11:28.919Z,109.72
2022-09-15T23:13:56.444Z,109.72
2022-09-15T23:16:24.525Z,103.53
2022-09-15T23:18:51.934Z,102.07
2022-09-15T23:21:20.547Z,108.55
2022-09-15T23:23:48.960Z,105.35
2022-09-15T23:26:17.647Z,102.55
2022-09-15T23:28:44.694Z,100.85
2022-09-15T23:31:12.926Z,99.60
2022-09-15T23:33:40.365Z,96.43
2022-09-15T23:36:09.964Z,98.05
2022-09-15T23:38:39.980Z,105.88
2022-09-15T23:41:08.191Z,98.93
2022-09-15T23:43:35.485Z,98.15
2022-09-15T23:46:03.186Z,103.18
2022-09-15T23:48:31.692Z,105.25
2022-09-15T23:50:58.714Z,96.50
2022-09-15T23:53:25.610Z,93.65
2022-09-15T23:55:53.828Z,94.07
2022-09-15T23:58:20.578Z,93.70
